createdAt,value
2023-04-25T00:00:06.538Z,1002.34
2023-04-25T00:00:22.665Z,1002.31
2023-04-25T00:00:38.875Z,1002.35
2023-04-25T00:00:54.849Z,1002.31
2023-04-25T00:01:10.906Z,1002.34
2023-04-25T00:01:26.997Z,1002.29
2023-04-25T00:01:43.120Z,1002.29
2023-04-25T00:01:59.206Z,1002.25
2023-04-25T00:02:15.388Z,1002.28
2023-04-25T00:02:31.442Z,1002.3
2023-04-25T00:02:47.753Z,1002.32
2023-04-25T00:03:03.697Z,1002.28
2023-04-25T00:03:19.851Z,1002.32
2023-04-25T00:03:36.055Z,1002.28
2023-04-25T00:03:52.203Z,1002.31
2023-04-25T00:04:08.242Z,1002.29
2023-04-25T00:04:24.210Z,1002.27
2023-04-25T00:04:40.401Z,1002.27
2023-04-25T00:04:56.461Z,1002.26
2023-04-25T00:05:12.545Z,1002.25
2023-04-25T00:05:28.507Z,1002.3
2023-04-25T00:05:44.689Z,1002.33
2023-04-25T00:06:00.606Z,1002.28
2023-04-25T00:06:16.739Z,1002.31
2023-04-25T00:06:32.809Z,1002.32
2023-04-25T00:06:48.903Z,1002.33
2023-04-25T00:07:04.989Z,1002.32
2023-04-25T00:07:21.114Z,1002.37
2023-04-25T00:07:37.180Z,1002.31
2023-04-25T00:07:53.296Z,1002.32
2023-04-25T00:08:09.374Z,1002.3
2023-04-25T00:08:25.449Z,1002.3
2023-04-25T00:08:41.572Z,1002.34
2023-04-25T00:08:57.685Z,1002.32
2023-04-25T00:09:13.737Z,1002.31
2023-04-25T00:09:29.845Z,1002.29
2023-04-25T00:09:45.922Z,1002.33
2023-04-25T00:10:02.029Z,1002.34
2023-04-25T00:10:18.128Z,1002.3
2023-04-25T00:10:34.209Z,1002.31
2023-04-25T00:10:50.316Z,1002.32
2023-04-25T00:11:06.402Z,1002.35
2023-04-25T00:11:22.489Z,1002.34
2023-04-25T00:11:38.620Z,1002.33
2023-04-25T00:11:54.694Z,1002.38
2023-04-25T00:12:10.782Z,1002.34
2023-04-25T00:12:26.908Z,1002.36
2023-04-25T00:12:42.998Z,1002.4
2023-04-25T00:12:59.067Z,1002.35
2023-04-25T00:13:15.169Z,1002.36
2023-04-25T00:13:31.266Z,1002.38
2023-04-25T00:13:47.588Z,1002.35
2023-04-25T00:14:03.482Z,1002.35
2023-04-25T00:14:19.604Z,1002.33
2023-04-25T00:14:35.653Z,1002.42
2023-04-25T00:14:51.738Z,1002.35
2023-04-25T00:15:07.870Z,1002.37
2023-04-25T00:15:23.926Z,1002.39
2023-04-25T00:15:40.049Z,1002.43
2023-04-25T00:15:56.117Z,1002.4
2023-04-25T00:16:12.273Z,1002.39
2023-04-25T00:16:28.374Z,1002.33
2023-04-25T00:16:44.399Z,1002.32
2023-04-25T00:17:00.463Z,1002.36
2023-04-25T00:17:16.579Z,1002.39
2023-04-25T00:17:32.709Z,1002.36
2023-04-25T00:17:48.822Z,1002.39
2023-04-25T00:18:05.012Z,1002.4
2023-04-25T00:18:20.958Z,1002.4
2023-04-25T00:18:37.050Z,1002.4
2023-04-25T00:18:53.150Z,1002.4
2023-04-25T00:19:09.234Z,1002.37
2023-04-25T00:19:25.366Z,1002.4
2023-04-25T00:19:41.429Z,1002.39
2023-04-25T00:19:57.536Z,1002.4
2023-04-25T00:20:13.636Z,1002.36
2023-04-25T00:20:29.725Z,1002.38
2023-04-25T00:20:45.818Z,1002.4
2023-04-25T00:21:01.936Z,1002.38
2023-04-25T00:21:17.979Z,1002.41
2023-04-25T00:21:50.166Z,1002.39
2023-04-25T00:22:06.272Z,1002.38
2023-04-25T00:22:22.362Z,1002.39
2023-04-25T00:22:38.492Z,1002.34
2023-04-25T00:22:54.563Z,1002.37
2023-04-25T00:23:10.705Z,1002.38
2023-04-25T00:23:26.725Z,1002.38
2023-04-25T00:23:42.842Z,1002.42
2023-04-25T00:23:58.948Z,1002.42
2023-04-25T00:24:15.048Z,1002.43
2023-04-25T00:24:31.052Z,1002.45
2023-04-25T00:24:47.209Z,1002.44
2023-04-25T00:25:03.364Z,1002.42
2023-04-25T00:25:19.427Z,1002.42
2023-04-25T00:25:35.535Z,1002.41
2023-04-25T00:25:51.656Z,1002.45
2023-04-25T00:26:07.723Z,1002.42
2023-04-25T00:26:23.847Z,1002.41
2023-04-25T00:26:39.916Z,1002.41
2023-04-25T00:26:55.977Z,1002.4
2023-04-25T00:27:12.071Z,1002.42
2023-04-25T00:27:28.208Z,1002.43
2023-04-25T00:27:44.242Z,1002.41
2023-04-25T00:28:00.412Z,1002.42
2023-04-25T00:28:16.458Z,1002.41
2023-04-25T00:28:32.545Z,1002.42
2023-04-25T00:28:48.663Z,1002.41
2023-04-25T00:29:04.735Z,1002.35
2023-04-25T00:29:20.831Z,1002.4
2023-04-25T00:29:36.938Z,1002.43
2023-04-25T00:29:52.992Z,1002.39
2023-04-25T00:30:09.041Z,1002.4
2023-04-25T00:30:25.229Z,1002.38
2023-04-25T00:30:41.331Z,1002.42
2023-04-25T00:30:57.395Z,1002.4
2023-04-25T00:31:13.559Z,1002.38
2023-04-25T00:31:29.670Z,1002.41
2023-04-25T00:31:45.756Z,1002.4
2023-04-25T00:32:01.920Z,1002.4
2023-04-25T00:32:17.853Z,1002.36
2023-04-25T00:32:34.004Z,1002.38
2023-04-25T00:32:50.143Z,1002.41
2023-04-25T00:33:06.146Z,1002.43
2023-04-25T00:33:22.225Z,1002.38
2023-04-25T00:33:38.335Z,1002.43
2023-04-25T00:33:54.409Z,1002.38
2023-04-25T00:34:10.502Z,1002.38
2023-04-25T00:34:26.704Z,1002.36
2023-04-25T00:34:42.712Z,1002.4
2023-04-25T00:34:58.847Z,1002.39
2023-04-25T00:35:14.923Z,1002.38
2023-04-25T00:35:31.055Z,1002.39
2023-04-25T00:35:47.112Z,1002.38
2023-04-25T00:36:03.192Z,1002.39
2023-04-25T00:36:19.264Z,1002.35
2023-04-25T00:36:35.367Z,1002.35
2023-04-25T00:36:51.475Z,1002.37
2023-04-25T00:37:07.563Z,1002.36
2023-04-25T00:37:23.643Z,1002.36
2023-04-25T00:37:39.750Z,1002.38
2023-04-25T00:37:55.861Z,1002.37
2023-04-25T00:38:11.938Z,1002.31
2023-04-25T00:38:28.030Z,1002.34
2023-04-25T00:38:44.143Z,1002.34
2023-04-25T00:39:00.239Z,1002.29
2023-04-25T00:39:16.346Z,1002.29
2023-04-25T00:39:32.417Z,1002.32
2023-04-25T00:39:48.497Z,1002.36
2023-04-25T00:40:04.620Z,1002.34
2023-04-25T00:40:20.683Z,1002.33
2023-04-25T00:40:36.805Z,1002.29
2023-04-25T00:40:52.906Z,1002.34
2023-04-25T00:41:09.024Z,1002.32
2023-04-25T00:41:25.064Z,1002.3
2023-04-25T00:41:41.188Z,1002.32
2023-04-25T00:41:57.259Z,1002.32
2023-04-25T00:42:13.335Z,1002.33
2023-04-25T00:42:29.455Z,1002.32
2023-04-25T00:42:45.520Z,1002.33
2023-04-25T00:43:01.653Z,1002.33
2023-04-25T00:43:17.751Z,1002.35
2023-04-25T00:43:33.834Z,1002.33
2023-04-25T00:43:50.155Z,1002.3
2023-04-25T00:44:06.030Z,1002.32
2023-04-25T00:44:22.108Z,1002.32
2023-04-25T00:44:38.148Z,1002.3
2023-04-25T00:44:54.281Z,1002.31
2023-04-25T00:45:10.395Z,1002.33
2023-04-25T00:45:26.511Z,1002.33
2023-04-25T00:45:42.607Z,1002.32
2023-04-25T00:45:58.684Z,1002.32
2023-04-25T00:46:14.827Z,1002.33
2023-04-25T00:46:30.907Z,1002.31
2023-04-25T00:46:46.966Z,1002.32
2023-04-25T00:47:03.250Z,1002.35
2023-04-25T00:47:19.145Z,1002.35
2023-04-25T00:47:35.299Z,1002.31
2023-04-25T00:47:51.338Z,1002.32
2023-04-25T00:48:07.468Z,1002.29
2023-04-25T00:48:23.535Z,1002.32
2023-04-25T00:48:39.626Z,1002.35
2023-04-25T00:48:55.717Z,1002.36
2023-04-25T00:49:11.811Z,1002.34
2023-04-25T00:49:27.921Z,1002.29
2023-04-25T00:49:43.997Z,1002.34
2023-04-25T00:50:00.119Z,1002.34
2023-04-25T00:50:16.170Z,1002.29
2023-04-25T00:50:32.280Z,1002.32
2023-04-25T00:50:48.377Z,1002.34
2023-04-25T00:51:04.483Z,1002.3
2023-04-25T00:51:26.687Z,1002.34
2023-04-25T00:51:42.793Z,1002.29
2023-04-25T00:51:58.897Z,1002.34
2023-04-25T00:52:14.979Z,1002.33
2023-04-25T00:52:31.086Z,1002.31
2023-04-25T00:52:47.175Z,1002.25
2023-04-25T00:53:03.278Z,1002.27
2023-04-25T00:53:19.391Z,1002.28
2023-04-25T00:53:35.486Z,1002.26
2023-04-25T00:53:51.969Z,1002.3
2023-04-25T00:54:07.657Z,1002.27
2023-04-25T00:54:23.765Z,1002.31
2023-04-25T00:54:39.889Z,1002.32
2023-04-25T00:54:55.976Z,1002.31
2023-04-25T00:55:12.045Z,1002.28
2023-04-25T00:55:28.142Z,1002.34
2023-04-25T00:55:44.212Z,1002.31
2023-04-25T00:56:00.295Z,1002.34
2023-04-25T00:56:16.406Z,1002.3
2023-04-25T00:56:32.505Z,1002.37
2023-04-25T00:56:48.570Z,1002.32
2023-04-25T00:57:04.700Z,1002.32
2023-04-25T00:57:20.766Z,1002.3
2023-04-25T00:57:36.884Z,1002.32
2023-04-25T00:57:52.959Z,1002.36
2023-04-25T00:58:09.070Z,1002.36
2023-04-25T00:58:25.156Z,1002.33
2023-04-25T00:58:41.273Z,1002.34
2023-04-25T00:58:57.382Z,1002.32
2023-04-25T00:59:13.449Z,1002.33
2023-04-25T00:59:29.550Z,1002.33
2023-04-25T00:59:45.678Z,1002.31
2023-04-25T01:00:01.732Z,1002.3
2023-04-25T01:00:17.763Z,1002.33
2023-04-25T01:00:33.975Z,1002.32
2023-04-25T01:00:50.043Z,1002.32
2023-04-25T01:01:06.151Z,1002.34
2023-04-25T01:01:22.296Z,1002.35
2023-04-25T01:01:38.295Z,1002.33
2023-04-25T01:01:54.452Z,1002.3
2023-04-25T01:02:10.585Z,1002.29
2023-04-25T01:02:26.728Z,1002.34
2023-04-25T01:02:42.832Z,1002.34
2023-04-25T01:02:58.892Z,1002.31
2023-04-25T01:03:15.011Z,1002.33
2023-04-25T01:03:31.081Z,1002.34
2023-04-25T01:03:47.161Z,1002.3
2023-04-25T01:04:03.342Z,1002.32
2023-04-25T01:04:19.424Z,1002.34
2023-04-25T01:04:35.334Z,1002.34
2023-04-25T01:04:51.425Z,1002.26
2023-04-25T01:05:07.550Z,1002.31
2023-04-25T01:05:23.649Z,1002.31
2023-04-25T01:05:39.708Z,1002.28
2023-04-25T01:05:55.814Z,1002.29
2023-04-25T01:06:11.882Z,1002.3
2023-04-25T01:06:28.006Z,1002.27
2023-04-25T01:06:44.090Z,1002.27
2023-04-25T01:07:00.166Z,1002.31
2023-04-25T01:07:16.271Z,1002.29
2023-04-25T01:07:32.410Z,1002.3
2023-04-25T01:07:48.459Z,1002.29
2023-04-25T01:08:04.577Z,1002.29
2023-04-25T01:08:20.664Z,1002.27
2023-04-25T01:08:36.744Z,1002.31
2023-04-25T01:08:52.859Z,1002.28
2023-04-25T01:09:08.949Z,1002.29
2023-04-25T01:09:25.038Z,1002.3
2023-04-25T01:09:41.161Z,1002.28
2023-04-25T01:09:57.248Z,1002.29
2023-04-25T01:10:13.310Z,1002.29
2023-04-25T01:10:29.409Z,1002.29
2023-04-25T01:10:45.522Z,1002.3
2023-04-25T01:11:01.592Z,1002.28
2023-04-25T01:11:17.680Z,1002.28
2023-04-25T01:11:33.770Z,1002.32
2023-04-25T01:11:49.941Z,1002.27
2023-04-25T01:12:05.994Z,1002.28
2023-04-25T01:12:22.070Z,1002.27
2023-04-25T01:12:38.156Z,1002.25
2023-04-25T01:12:54.272Z,1002.23
2023-04-25T01:13:10.423Z,1002.28
2023-04-25T01:13:26.447Z,1002.3
2023-04-25T01:13:42.566Z,1002.24
2023-04-25T01:13:58.638Z,1002.24
2023-04-25T01:14:14.714Z,1002.23
2023-04-25T01:14:30.869Z,1002.22
2023-04-25T01:14:46.940Z,1002.26
2023-04-25T01:15:03.021Z,1002.25
2023-04-25T01:15:19.124Z,1002.24
2023-04-25T01:15:35.218Z,1002.27
2023-04-25T01:15:51.288Z,1002.21
2023-04-25T01:16:07.424Z,1002.24
2023-04-25T01:16:23.525Z,1002.22
2023-04-25T01:16:39.612Z,1002.22
2023-04-25T01:16:55.790Z,1002.23
2023-04-25T01:17:11.789Z,1002.22
2023-04-25T01:17:27.872Z,1002.25
2023-04-25T01:17:44.003Z,1002.23
2023-04-25T01:18:00.069Z,1002.21
2023-04-25T01:18:16.170Z,1002.19
2023-04-25T01:18:32.289Z,1002.25
2023-04-25T01:18:48.360Z,1002.24
2023-04-25T01:19:04.433Z,1002.2
2023-04-25T01:19:20.471Z,1002.24
2023-04-25T01:19:36.632Z,1002.24
2023-04-25T01:19:52.726Z,1002.21
2023-04-25T01:20:08.819Z,1002.23
2023-04-25T01:20:24.930Z,1002.24
2023-04-25T01:20:41.033Z,1002.28
2023-04-25T01:20:57.095Z,1002.22
2023-04-25T01:21:13.180Z,1002.26
2023-04-25T01:21:29.297Z,1002.21
2023-04-25T01:21:45.384Z,1002.21
2023-04-25T01:22:01.463Z,1002.23
2023-04-25T01:22:17.572Z,1002.2
2023-04-25T01:22:33.651Z,1002.22
2023-04-25T01:22:49.756Z,1002.2
2023-04-25T01:23:05.875Z,1002.21
2023-04-25T01:23:21.954Z,1002.2
2023-04-25T01:23:38.024Z,1002.19
2023-04-25T01:23:54.127Z,1002.18
2023-04-25T01:24:10.209Z,1002.21
2023-04-25T01:24:26.389Z,1002.22
2023-04-25T01:24:42.412Z,1002.22
2023-04-25T01:24:58.523Z,1002.16
2023-04-25T01:25:14.620Z,1002.18
2023-04-25T01:25:30.687Z,1002.19
2023-04-25T01:25:46.791Z,1002.22
2023-04-25T01:26:02.918Z,1002.19
2023-04-25T01:26:18.982Z,1002.2
2023-04-25T01:26:35.093Z,1002.2
2023-04-25T01:26:51.158Z,1002.2
2023-04-25T01:27:07.266Z,1002.17
2023-04-25T01:27:23.366Z,1002.21
2023-04-25T01:27:39.500Z,1002.19
2023-04-25T01:27:55.531Z,1002.16
2023-04-25T01:28:11.632Z,1002.19
2023-04-25T01:28:27.732Z,1002.19
2023-04-25T01:28:43.848Z,1002.18
2023-04-25T01:28:59.915Z,1002.16
2023-04-25T01:29:16.018Z,1002.17
2023-04-25T01:29:32.133Z,1002.18
2023-04-25T01:29:48.200Z,1002.17
2023-04-25T01:30:04.316Z,1002.16
2023-04-25T01:30:20.425Z,1002.17
2023-04-25T01:30:36.550Z,1002.14
2023-04-25T01:30:52.571Z,1002.16
2023-04-25T01:31:08.671Z,1002.13
2023-04-25T01:31:24.815Z,1002.16
2023-04-25T01:31:40.809Z,1002.17
2023-04-25T01:31:56.994Z,1002.17
2023-04-25T01:32:13.177Z,1002.15
2023-04-25T01:32:29.246Z,1002.19
2023-04-25T01:32:45.179Z,1002.18
2023-04-25T01:33:01.367Z,1002.16
2023-04-25T01:33:17.463Z,1002.22
2023-04-25T01:33:33.553Z,1002.17
2023-04-25T01:33:49.870Z,1002.19
2023-04-25T01:34:05.705Z,1002.14
2023-04-25T01:34:21.810Z,1002.18
2023-04-25T01:34:37.936Z,1002.17
2023-04-25T01:34:53.980Z,1002.18
2023-04-25T01:35:10.090Z,1002.16
2023-04-25T01:35:26.189Z,1002.18
2023-04-25T01:35:42.275Z,1002.18
2023-04-25T01:35:58.395Z,1002.21
2023-04-25T01:36:14.378Z,1002.2
2023-04-25T01:36:30.579Z,1002.17
2023-04-25T01:36:46.688Z,1002.15
2023-04-25T01:37:02.800Z,1002.19
2023-04-25T01:37:18.772Z,1002.17
2023-04-25T01:37:34.952Z,1002.16
2023-04-25T01:37:51.031Z,1002.15
2023-04-25T01:38:07.165Z,1002.14
2023-04-25T01:38:23.300Z,1002.17
2023-04-25T01:38:39.347Z,1002.17
2023-04-25T01:38:55.406Z,1002.17
2023-04-25T01:39:11.496Z,1002.14
2023-04-25T01:39:27.612Z,1002.1
2023-04-25T01:39:43.786Z,1002.17
2023-04-25T01:39:59.786Z,1002.16
2023-04-25T01:40:15.896Z,1002.13
2023-04-25T01:40:31.974Z,1002.16
2023-04-25T01:40:48.058Z,1002.16
2023-04-25T01:41:04.160Z,1002.16
2023-04-25T01:41:20.263Z,1002.14
2023-04-25T01:41:36.376Z,1002.14
2023-04-25T01:41:52.452Z,1002.1
2023-04-25T01:42:08.562Z,1002.16
2023-04-25T01:42:24.697Z,1002.14
2023-04-25T01:42:40.765Z,1002.14
2023-04-25T01:42:56.754Z,1002.11
2023-04-25T01:43:12.931Z,1002.12
2023-04-25T01:43:29.055Z,1002.15
2023-04-25T01:43:45.118Z,1002.13
2023-04-25T01:44:01.112Z,1002.12
2023-04-25T01:44:17.292Z,1002.1
2023-04-25T01:44:33.441Z,1002.1
2023-04-25T01:44:49.520Z,1002.1
2023-04-25T01:45:11.733Z,1002.15
2023-04-25T01:45:27.833Z,1002.11
2023-04-25T01:45:43.954Z,1002.13
2023-04-25T01:46:00.055Z,1002.12
2023-04-25T01:46:16.098Z,1002.1
2023-04-25T01:46:32.363Z,1002.11
2023-04-25T01:46:48.317Z,1002.12
2023-04-25T01:47:04.373Z,1002.12
2023-04-25T01:47:20.545Z,1002.13
2023-04-25T01:47:36.654Z,1002.12
2023-04-25T01:47:52.707Z,1002.08
2023-04-25T01:48:08.857Z,1002.12
2023-04-25T01:48:24.873Z,1002.12
2023-04-25T01:48:40.962Z,1002.13
2023-04-25T01:48:57.038Z,1002.12
2023-04-25T01:49:13.140Z,1002.13
2023-04-25T01:49:29.248Z,1002.11
2023-04-25T01:49:45.316Z,1002.11
2023-04-25T01:50:17.541Z,1002.12
2023-04-25T01:50:33.615Z,1002.13
2023-04-25T01:50:49.703Z,1002.13
2023-04-25T01:51:05.798Z,1002.11
2023-04-25T01:51:21.899Z,1002.15
2023-04-25T01:51:38.018Z,1002.14
2023-04-25T01:51:54.098Z,1002.11
2023-04-25T01:52:10.178Z,1002.14
2023-04-25T01:52:26.313Z,1002.18
2023-04-25T01:52:42.369Z,1002.16
2023-04-25T01:52:58.392Z,1002.12
2023-04-25T01:53:14.603Z,1002.12
2023-04-25T01:53:30.640Z,1002.1
2023-04-25T01:53:46.769Z,1002.13
2023-04-25T01:54:02.856Z,1002.12
2023-04-25T01:54:18.948Z,1002.13
2023-04-25T01:54:35.053Z,1002.17
2023-04-25T01:54:51.119Z,1002.12
2023-04-25T01:55:07.215Z,1002.11
2023-04-25T01:55:23.302Z,1002.14
2023-04-25T01:55:39.399Z,1002.14
2023-04-25T01:55:55.507Z,1002.16
2023-04-25T01:56:11.614Z,1002.09
2023-04-25T01:56:27.730Z,1002.12
2023-04-25T01:56:43.896Z,1002.1
2023-04-25T01:56:59.902Z,1002.13
2023-04-25T01:57:15.973Z,1002.1
2023-04-25T01:57:32.115Z,1002.15
2023-04-25T01:57:48.202Z,1002.12
2023-04-25T01:58:04.271Z,1002.12
2023-04-25T01:58:20.354Z,1002.11
2023-04-25T01:58:36.368Z,1002.11
2023-04-25T01:58:52.542Z,1002.14
2023-04-25T01:59:08.640Z,1002.15
2023-04-25T01:59:24.727Z,1002.11
2023-04-25T01:59:40.832Z,1002.13
2023-04-25T01:59:56.913Z,1002.09
2023-04-25T02:00:12.997Z,1002.12
2023-04-25T02:00:29.145Z,1002.11
2023-04-25T02:00:45.213Z,1002.13
2023-04-25T02:01:01.364Z,1002.12
2023-04-25T02:01:17.462Z,1002.11
2023-04-25T02:01:33.568Z,1002.13
2023-04-25T02:01:49.624Z,1002.15
2023-04-25T02:02:05.718Z,1002.12
2023-04-25T02:02:21.937Z,1002.08
2023-04-25T02:02:38.160Z,1002.07
2023-04-25T02:02:54.011Z,1002.09
2023-04-25T02:03:10.202Z,1002.12
2023-04-25T02:03:26.234Z,1002.13
2023-04-25T02:03:42.477Z,1002.1
2023-04-25T02:03:58.641Z,1002.12
2023-04-25T02:04:14.597Z,1002.11
2023-04-25T02:04:30.639Z,1002.08
2023-04-25T02:04:46.759Z,1002.12
2023-04-25T02:05:02.731Z,1002.14
2023-04-25T02:05:18.766Z,1002.18
2023-04-25T02:05:34.890Z,1002.15
2023-04-25T02:05:51.023Z,1002.14
2023-04-25T02:06:07.078Z,1002.16
2023-04-25T02:06:23.193Z,1002.16
2023-04-25T02:06:39.298Z,1002.18
2023-04-25T02:06:55.379Z,1002.13
2023-04-25T02:07:11.477Z,1002.15
2023-04-25T02:07:27.574Z,1002.16
2023-04-25T02:07:43.649Z,1002.11
2023-04-25T02:07:59.743Z,1002.13
2023-04-25T02:08:15.869Z,1002.14
2023-04-25T02:08:31.932Z,1002.17
2023-04-25T02:08:48.031Z,1002.11
2023-04-25T02:09:04.153Z,1002.14
2023-04-25T02:09:20.236Z,1002.13
2023-04-25T02:09:36.358Z,1002.15
2023-04-25T02:09:52.419Z,1002.15
2023-04-25T02:10:08.515Z,1002.14
2023-04-25T02:10:24.598Z,1002.15
2023-04-25T02:10:40.692Z,1002.16
2023-04-25T02:10:56.779Z,1002.16
2023-04-25T02:11:12.875Z,1002.14
2023-04-25T02:11:45.106Z,1002.18
2023-04-25T02:12:01.087Z,1002.13
2023-04-25T02:12:17.300Z,1002.14
2023-04-25T02:12:33.357Z,1002.11
2023-04-25T02:12:49.489Z,1002.16
2023-04-25T02:13:05.553Z,1002.12
2023-04-25T02:13:21.670Z,1002.13
2023-04-25T02:13:37.726Z,1002.15
2023-04-25T02:13:53.843Z,1002.14
2023-04-25T02:14:09.942Z,1002.16
2023-04-25T02:14:26.051Z,1002.12
2023-04-25T02:14:42.108Z,1002.11
2023-04-25T02:14:58.212Z,1002.15
2023-04-25T02:15:14.289Z,1002.13
2023-04-25T02:15:30.414Z,1002.11
2023-04-25T02:15:46.595Z,1002.11
2023-04-25T02:16:02.755Z,1002.15
2023-04-25T02:16:18.810Z,1002.12
2023-04-25T02:16:34.916Z,1002.11
2023-04-25T02:16:50.979Z,1002.12
2023-04-25T02:17:07.112Z,1002.12
2023-04-25T02:17:23.058Z,1002.12
2023-04-25T02:17:39.193Z,1002.12
2023-04-25T02:17:55.267Z,1002.12
2023-04-25T02:18:11.450Z,1002.13
2023-04-25T02:18:27.465Z,1002.13
2023-04-25T02:18:43.535Z,1002.09
2023-04-25T02:18:59.634Z,1002.1
2023-04-25T02:19:15.721Z,1002.11
2023-04-25T02:19:31.816Z,1002.08
2023-04-25T02:19:47.896Z,1002.06
2023-04-25T02:20:04.012Z,1002.08
2023-04-25T02:20:20.125Z,1002.12
2023-04-25T02:20:36.176Z,1002.11
2023-04-25T02:20:52.281Z,1002.07
2023-04-25T02:21:08.398Z,1002.11
2023-04-25T02:21:24.482Z,1002.11
2023-04-25T02:21:40.586Z,1002.1
2023-04-25T02:21:56.656Z,1002.09
2023-04-25T02:22:12.739Z,1002.12
2023-04-25T02:22:28.850Z,1002.11
2023-04-25T02:22:44.944Z,1002.09
2023-04-25T02:23:01.038Z,1002.05
2023-04-25T02:23:17.141Z,1002.06
2023-04-25T02:23:33.239Z,1002.06
2023-04-25T02:23:49.626Z,1002.04
2023-04-25T02:24:05.476Z,1002.09
2023-04-25T02:24:21.569Z,1002.09
2023-04-25T02:24:37.592Z,1002.07
2023-04-25T02:24:53.694Z,1002.09
2023-04-25T02:25:09.808Z,1002.07
2023-04-25T02:25:25.892Z,1002.04
2023-04-25T02:25:42.018Z,1002.1
2023-04-25T02:25:58.114Z,1002.07
2023-04-25T02:26:14.152Z,1002.08
2023-04-25T02:26:30.276Z,1002.11
2023-04-25T02:26:46.350Z,1002.08
2023-04-25T02:27:02.483Z,1002.12
2023-04-25T02:27:18.563Z,1002.13
2023-04-25T02:27:34.628Z,1002.12
2023-04-25T02:27:50.728Z,1002.15
2023-04-25T02:28:06.848Z,1002.12
2023-04-25T02:28:22.929Z,1002.09
2023-04-25T02:28:39.024Z,1002.11
2023-04-25T02:28:55.112Z,1002.08
2023-04-25T02:29:11.224Z,1002.11
2023-04-25T02:29:27.293Z,1002.13
2023-04-25T02:29:43.397Z,1002.12
2023-04-25T02:30:15.594Z,1002.06
2023-04-25T02:30:31.705Z,1002.09
2023-04-25T02:30:47.773Z,1002.09
2023-04-25T02:31:03.884Z,1002.08
2023-04-25T02:31:20.027Z,1002.06
2023-04-25T02:31:36.097Z,1002.03
2023-04-25T02:31:52.267Z,1002.05
2023-04-25T02:32:08.268Z,1002.09
2023-04-25T02:32:24.367Z,1002.06
2023-04-25T02:32:40.573Z,1002.07
2023-04-25T02:32:56.549Z,1002.05
2023-04-25T02:33:12.583Z,1002.06
2023-04-25T02:33:28.726Z,1002.04
2023-04-25T02:33:44.844Z,1002.04
2023-04-25T02:34:00.984Z,1002.05
2023-04-25T02:34:16.990Z,1002.1
2023-04-25T02:34:33.104Z,1002.05
2023-04-25T02:34:49.162Z,1002.07
2023-04-25T02:35:05.360Z,1002.04
2023-04-25T02:35:21.365Z,1002.08
2023-04-25T02:35:37.481Z,1002.06
2023-04-25T02:35:53.567Z,1002.04
2023-04-25T02:36:09.647Z,1002.04
2023-04-25T02:36:25.773Z,1002.07
2023-04-25T02:36:41.838Z,1002.05
2023-04-25T02:36:57.940Z,1002.09
2023-04-25T02:37:14.051Z,1002.07
2023-04-25T02:37:30.150Z,1002.05
2023-04-25T02:37:46.224Z,1002.08
2023-04-25T02:38:02.347Z,1002.06
2023-04-25T02:38:18.495Z,1002.04
2023-04-25T02:38:34.538Z,1002.04
2023-04-25T02:38:56.750Z,1002.04
2023-04-25T02:39:12.831Z,1002.06
2023-04-25T02:39:28.968Z,1002.05
2023-04-25T02:39:45.072Z,1002
2023-04-25T02:40:01.178Z,1002.03
2023-04-25T02:40:17.228Z,1002.02
2023-04-25T02:40:33.318Z,1002.04
2023-04-25T02:40:49.416Z,1002.03
2023-04-25T02:41:05.503Z,1002.05
2023-04-25T02:41:21.641Z,1002.06
2023-04-25T02:41:37.690Z,1002.04
2023-04-25T02:41:53.813Z,1002.05
2023-04-25T02:42:09.805Z,1002.02
2023-04-25T02:42:25.974Z,1002.05
2023-04-25T02:42:42.057Z,1002.01
2023-04-25T02:42:58.170Z,1002.07
2023-04-25T02:43:14.270Z,1002.08
2023-04-25T02:43:30.387Z,1002.07
2023-04-25T02:43:46.434Z,1002.05
2023-04-25T02:44:02.557Z,1002.02
2023-04-25T02:44:18.633Z,1002.02
2023-04-25T02:44:35.337Z,1002.01
2023-04-25T02:44:50.817Z,1002.03
2023-04-25T02:45:06.940Z,1002.03
2023-04-25T02:45:23.029Z,1002.04
2023-04-25T02:45:39.154Z,1002.01
2023-04-25T02:45:55.202Z,1002.04
2023-04-25T02:46:11.325Z,1002.05
2023-04-25T02:46:38.532Z,1002
2023-04-25T02:46:43.505Z,1001.99
2023-04-25T02:46:59.619Z,1001.99
2023-04-25T02:47:15.736Z,1001.99
2023-04-25T02:47:31.899Z,1001.96
2023-04-25T02:47:47.905Z,1001.99
2023-04-25T02:48:04.050Z,1001.94
2023-04-25T02:48:20.085Z,1001.98
2023-04-25T02:48:36.148Z,1001.97
2023-04-25T02:48:52.156Z,1001.97
2023-04-25T02:49:08.360Z,1001.99
2023-04-25T02:49:24.435Z,1001.96
2023-04-25T02:49:40.537Z,1001.95
2023-04-25T02:49:56.634Z,1001.96
2023-04-25T02:50:12.716Z,1001.96
2023-04-25T02:50:28.819Z,1001.98
2023-04-25T02:50:44.923Z,1002
2023-04-25T02:51:01.008Z,1001.99
2023-04-25T02:51:17.080Z,1002.01
2023-04-25T02:51:33.570Z,1002
2023-04-25T02:51:49.289Z,1001.98
2023-04-25T02:52:05.384Z,1001.95
2023-04-25T02:52:21.455Z,1001.97
2023-04-25T02:52:37.591Z,1001.92
2023-04-25T02:52:53.683Z,1001.95
2023-04-25T02:53:09.803Z,1002
2023-04-25T02:53:25.848Z,1001.98
2023-04-25T02:53:41.951Z,1002.01
2023-04-25T02:53:58.028Z,1001.99
2023-04-25T02:54:14.143Z,1001.96
2023-04-25T02:54:30.273Z,1001.95
2023-04-25T02:54:46.327Z,1001.98
2023-04-25T02:55:02.404Z,1001.96
2023-04-25T02:55:18.502Z,1001.97
2023-04-25T02:55:34.527Z,1001.97
2023-04-25T02:55:50.705Z,1001.95
2023-04-25T02:56:06.786Z,1001.96
2023-04-25T02:56:22.899Z,1001.93
2023-04-25T02:56:38.969Z,1001.96
2023-04-25T02:56:55.082Z,1001.93
2023-04-25T02:57:11.164Z,1001.95
2023-04-25T02:57:27.262Z,1001.94
2023-04-25T02:57:43.350Z,1001.94
2023-04-25T02:57:59.444Z,1001.98
2023-04-25T02:58:15.577Z,1001.99
2023-04-25T02:58:31.642Z,1001.94
2023-04-25T02:58:47.732Z,1001.92
2023-04-25T02:59:03.813Z,1001.94
2023-04-25T02:59:19.911Z,1001.92
2023-04-25T02:59:36.037Z,1001.92
2023-04-25T02:59:52.119Z,1001.92
2023-04-25T03:00:24.355Z,1001.93
2023-04-25T03:00:40.413Z,1001.96
2023-04-25T03:00:56.594Z,1001.98
2023-04-25T03:01:12.542Z,1002.01
2023-04-25T03:01:28.715Z,1001.99
2023-04-25T03:01:44.798Z,1001.93
2023-04-25T03:02:00.859Z,1001.91
2023-04-25T03:02:16.965Z,1001.95
2023-04-25T03:02:33.150Z,1001.92
2023-04-25T03:02:49.255Z,1001.93
2023-04-25T03:03:05.298Z,1001.95
2023-04-25T03:03:21.471Z,1001.97
2023-04-25T03:03:37.526Z,1001.97
2023-04-25T03:03:53.812Z,1001.92
2023-04-25T03:04:09.655Z,1001.93
2023-04-25T03:04:25.808Z,1001.92
2023-04-25T03:04:41.981Z,1001.94
2023-04-25T03:04:57.991Z,1001.97
2023-04-25T03:05:13.993Z,1001.97
2023-04-25T03:05:30.093Z,1001.93
2023-04-25T03:05:46.193Z,1001.94
2023-04-25T03:06:02.281Z,1001.94
2023-04-25T03:06:18.379Z,1001.93
2023-04-25T03:06:34.482Z,1001.97
2023-04-25T03:06:50.558Z,1001.95
2023-04-25T03:07:06.684Z,1001.96
2023-04-25T03:07:22.766Z,1001.96
2023-04-25T03:07:38.833Z,1001.96
2023-04-25T03:07:54.868Z,1001.95
2023-04-25T03:08:11.032Z,1001.98
2023-04-25T03:08:27.176Z,1001.99
2023-04-25T03:08:43.236Z,1001.91
2023-04-25T03:08:59.341Z,1001.93
2023-04-25T03:09:15.458Z,1001.93
2023-04-25T03:09:31.500Z,1001.98
2023-04-25T03:09:47.648Z,1002.01
2023-04-25T03:10:03.718Z,1001.94
2023-04-25T03:10:19.793Z,1001.94
2023-04-25T03:10:35.889Z,1001.96
2023-04-25T03:10:51.977Z,1001.96
2023-04-25T03:11:08.060Z,1001.98
2023-04-25T03:11:24.206Z,1001.98
2023-04-25T03:11:40.269Z,1001.94
2023-04-25T03:11:56.354Z,1001.96
2023-04-25T03:12:12.460Z,1001.97
2023-04-25T03:12:28.540Z,1001.98
2023-04-25T03:12:44.658Z,1001.95
2023-04-25T03:13:00.730Z,1001.98
2023-04-25T03:13:16.831Z,1001.96
2023-04-25T03:13:33.060Z,1001.95
2023-04-25T03:13:49.420Z,1001.98
2023-04-25T03:14:05.116Z,1001.95
2023-04-25T03:14:21.213Z,1001.99
2023-04-25T03:14:37.351Z,1001.95
2023-04-25T03:14:53.462Z,1001.98
2023-04-25T03:15:09.512Z,1001.97
2023-04-25T03:15:25.584Z,1001.97
2023-04-25T03:15:41.676Z,1001.97
2023-04-25T03:15:57.824Z,1001.99
2023-04-25T03:16:13.928Z,1001.98
2023-04-25T03:16:30.010Z,1001.98
2023-04-25T03:17:02.298Z,1002
2023-04-25T03:17:18.269Z,1001.95